Flight Track Log - Related Links

Times and Time Zones

All times are in EDT time to prevent confusion due to time zone crossing. See the AMF1026 flight status page for this flight to view local times or setup timezone preferences in your user account.

Time Position Orientation Groundspeed Altitude Reporting Facility
EDT Latitude Longitude Course Direction KTS MPH feet Rate Location/Type
Tue 08:37:59 PM 42.7714 -73.8061 347° North 165 190 1,200  Level Boston Center
Tue 08:38:48 PM 42.8089 -73.8183 347° North 191 220 2,300 1,486 Climbing Boston Center
Tue 08:39:48 PM 42.8519 -73.8675 320° Northwest 211 243 3,900 1,340 Climbing Boston Center
Tue 08:40:31 PM 42.8408 -73.9181 253° West 226 260 4,600 1,340 Climbing Boston Center
Tue 08:41:31 PM 42.8108 -73.9911 241° Southwest 226 260 6,200 1,650 Climbing Boston Center
Tue 08:42:31 PM 42.7889 -74.0697 249° West 221 254 7,900 1,750 Climbing Boston Center
Tue 08:43:31 PM 42.7586 -74.1453 241° Southwest 215 247 9,700 1,600 Climbing Boston Center
Tue 08:44:31 PM 42.7492 -74.2128 259° West 210 242 11,100 1,353 Climbing Boston Center
Tue 08:45:44 PM 42.7500 -74.2919 271° West 194 223 12,700 1,545 Climbing Boston Center
Tue 08:46:43 PM 42.7278 -74.3706 249° West 194 223 14,500 1,412 Climbing Boston Center
Tue 08:47:43 PM 42.6978 -74.4261 234° Southwest 201 231 15,500 800 Climbing Boston Center
Tue 08:48:43 PM 42.6611 -74.4983 235° Southwest 214 246 16,100 250 Climbing Boston Center
Tue 08:49:43 PM 42.6431 -74.5711 251° West 227 261 16,000 -50 Descending Boston Center
Tue 08:50:44 PM 42.6286 -74.6667 258° West 241 277 16,000  Level Boston Center
Tue 08:51:43 PM 42.6144 -74.7508 257° West 241 277 16,000  Level Boston Center
Tue 08:52:43 PM 42.6003 -74.8406 258° West 251 289 16,000  Level Boston Center
Tue 08:53:43 PM 42.5753 -74.9269 249° West 251 289 16,000  Level Boston Center
Tue 08:54:43 PM 42.5403 -75.0072 239° Southwest 246 283 16,000  Level Boston Center
Tue 08:55:43 PM 42.5069 -75.0903 241° Southwest 252 290 16,000  Level Boston Center
Tue 08:57:43 PM 42.4567 -75.2617 248° West 233 268 16,000 33 Level New York Center
Tue 08:58:43 PM 42.4369 -75.3447 252° West 233 268 16,100  Climbing New York Center
Tue 08:59:44 PM 42.4128 -75.4300 249° West 238 274 16,000 -51 Descending New York Center
Tue 09:00:41 PM 42.3844 -75.5122 245° Southwest 243 280 16,000  Level New York Center
Tue 09:01:42 PM 42.3564 -75.5914 244° Southwest 248 285 16,000  Level New York Center
Tue 09:02:43 PM 42.3261 -75.6706 243° Southwest 248 285 16,000  Level New York Center
Tue 09:03:41 PM 42.2956 -75.7525 243° Southwest 248 285 16,000  Level New York Center
Tue 09:04:41 PM 42.2672 -75.8342 245° Southwest 248 285 16,000  Level New York Center
Tue 09:05:41 PM 42.2369 -75.9103 242° Southwest 248 285 16,000  Level New York Center
Tue 09:06:42 PM 42.2042 -75.9889 241° Southwest 248 285 16,000  Level New York Center
Tue 09:07:43 PM 42.1756 -76.0706 245° Southwest 242 278 16,000  Level New York Center
Tue 09:08:43 PM 42.1472 -76.1494 244° Southwest 242 278 16,000  Level New York Center
Tue 09:09:41 PM 42.1225 -76.2342 249° West 242 278 16,000  Level New York Center
Tue 09:10:42 PM 42.0981 -76.3131 247° West 242 278 16,000  Level New York Center
Tue 09:11:41 PM 42.0714 -76.3947 246° West 242 278 16,000  Level New York Center
Tue 09:12:41 PM 42.0467 -76.4764 248° West 242 278 16,000  Level New York Center
Tue 09:13:42 PM 42.0242 -76.5556 249° West 237 273 16,000  Level New York Center
Tue 09:14:43 PM 41.9950 -76.6367 244° Southwest 237 273 16,000  Level New York Center
Tue 09:15:43 PM 41.9703 -76.7181 248° West 237 273 16,000  Level New York Center
Tue 09:16:42 PM 41.9433 -76.7967 245° Southwest 237 273 16,000  Level New York Center
Tue 09:18:33 PM 41.8961 -76.9481 247° West 234 269 16,000  Level Cleveland Center
Tue 09:19:33 PM 41.8694 -77.0278 246° West 234 269 16,000  Level Cleveland Center
Tue 09:20:33 PM 41.8408 -77.1072 244° Southwest 234 269 16,000  Level Cleveland Center
Tue 09:21:33 PM 41.8117 -77.1842 243° Southwest 239 275 16,000  Level Cleveland Center
Tue 09:22:33 PM 41.7847 -77.2608 245° Southwest 239 275 16,000  Level Cleveland Center
Tue 09:23:33 PM 41.7558 -77.3375 243° Southwest 239 275 16,000  Level Cleveland Center
Tue 09:24:33 PM 41.7286 -77.4111 244° Southwest 234 269 16,000  Level Cleveland Center
Tue 09:25:33 PM 41.6994 -77.4878 243° Southwest 234 269 16,000  Level Cleveland Center
Tue 09:26:33 PM 41.6639 -77.5644 238° Southwest 239 275 16,000  Level Cleveland Center
Tue 09:27:33 PM 41.6344 -77.6353 241° Southwest 234 269 16,000  Level Cleveland Center
Tue 09:28:33 PM 41.6031 -77.7061 239° Southwest 234 269 16,000  Level Cleveland Center
Tue 09:29:33 PM 41.5797 -77.7767 246° West 234 269 16,000  Level Cleveland Center
Tue 09:30:33 PM 41.5522 -77.8500 243° Southwest 229 264 16,000  Level Cleveland Center
Tue 09:31:33 PM 41.5269 -77.9258 246° West 224 258 16,000  Level Cleveland Center
Tue 09:32:33 PM 41.4994 -78.0019 244° Southwest 224 258 16,000  Level Cleveland Center
Tue 09:33:33 PM 41.4697 -78.0753 242° Southwest 224 258 16,000  Level Cleveland Center
Tue 09:34:33 PM 41.4381 -78.1483 240° Southwest 224 258 16,000  Level Cleveland Center
Tue 09:35:33 PM 41.4083 -78.2214 242° Southwest 224 258 16,000  Level Cleveland Center
Tue 09:36:33 PM 41.3764 -78.2975 241° Southwest 230 265 16,000  Level Cleveland Center
Tue 09:37:33 PM 41.3467 -78.3786 244° Southwest 230 265 16,000  Level Cleveland Center
Tue 09:38:33 PM 41.3169 -78.4517 242° Southwest 230 265 16,000 300 Level Cleveland Center
Tue 09:39:33 PM 41.2911 -78.5242 245° Southwest 230 265 16,600 750 Climbing Cleveland Center
Tue 09:40:33 PM 41.2672 -78.5886 244° Southwest 219 252 17,500 650 Climbing Cleveland Center
Tue 09:41:33 PM 41.2453 -78.6500 245° Southwest 200 230 17,900 250 Climbing Cleveland Center
Tue 09:42:33 PM 41.2214 -78.7142 244° Southwest 194 223 18,000 50 Climbing Cleveland Center
Tue 09:43:33 PM 41.1953 -78.7811 243° Southwest 200 230 18,000  Level Cleveland Center
Tue 09:44:33 PM 41.1717 -78.8592 248° West 213 245 18,000  Level Cleveland Center
Tue 09:45:33 PM 41.1519 -78.9369 251° West 219 252 18,000  Level Cleveland Center
Tue 09:46:33 PM 41.1322 -79.0144 251° West 224 258 18,000  Level Cleveland Center
Tue 09:47:33 PM 41.1144 -79.0947 254° West 229 264 18,000  Level Cleveland Center
Tue 09:48:33 PM 41.0944 -79.1725 251° West 229 264 18,000  Level Cleveland Center
Tue 09:49:33 PM 41.0747 -79.2500 251° West 229 264 18,000  Level Cleveland Center
Tue 09:50:33 PM 41.0547 -79.3247 250° West 229 264 18,000  Level Cleveland Center
Tue 09:51:33 PM 41.0386 -79.3939 253° West 229 264 18,000  Level Cleveland Center
Tue 09:52:33 PM 41.0228 -79.4739 255° West 229 264 18,000  Level Cleveland Center
Tue 09:53:33 PM 41.0108 -79.5431 257° West 224 258 18,000  Level Cleveland Center
Tue 09:54:33 PM 40.9969 -79.6203 257° West 224 258 18,000  Level Cleveland Center
Tue 09:55:33 PM 40.9831 -79.6975 257° West 224 258 18,000  Level Cleveland Center
Tue 09:56:33 PM 40.9647 -79.7719 252° West 224 258 18,000  Level Cleveland Center
Tue 09:57:33 PM 40.9444 -79.8464 250° West 224 258 18,000  Level Cleveland Center
Tue 09:58:33 PM 40.9242 -79.9208 250° West 224 258 18,000  Level Cleveland Center
Tue 09:59:33 PM 40.9017 -79.9925 247° West 224 258 18,000  Level Cleveland Center
Tue 10:00:33 PM 40.8706 -80.0642 240° Southwest 224 258 18,000  Level Cleveland Center
Tue 10:01:33 PM 40.8439 -80.1358 244° Southwest 224 258 18,000  Level Cleveland Center
Tue 10:02:33 PM 40.8192 -80.2128 247° West 224 258 18,000  Level Cleveland Center
Tue 10:03:33 PM 40.7839 -80.2842 237° Southwest 224 258 18,000  Level Cleveland Center
Tue 10:04:33 PM 40.7506 -80.3556 238° Southwest 230 265 18,000  Level Cleveland Center
Tue 10:05:33 PM 40.7133 -80.4214 233° Southwest 239 275 18,000  Level Cleveland Center
Tue 10:06:33 PM 40.6717 -80.4900 231° Southwest 240 276 18,000  Level Cleveland Center
Tue 10:07:33 PM 40.6342 -80.5586 234° Southwest 240 276 18,000  Level Cleveland Center
Tue 10:08:33 PM 40.6028 -80.6378 242° Southwest 234 269 18,000  Level Cleveland Center
Tue 10:09:33 PM 40.5861 -80.6953 249° West 219 252 18,000  Level Cleveland Center
Tue 10:10:33 PM 40.5714 -80.7661 255° West 214 246 18,000  Level Cleveland Center
Tue 10:11:33 PM 40.5422 -80.8372 242° Southwest 209 241 18,000  Level Cleveland Center
Tue 10:12:33 PM 40.5003 -80.9053 231° Southwest 227 261 18,000  Level Cleveland Center
Tue 10:13:33 PM 40.4583 -80.9706 230° Southwest 238 274 18,000  Level Cleveland Center
Tue 10:14:33 PM 40.4206 -81.0386 234° Southwest 238 274 18,000 -350 Level Cleveland Center
Tue 10:15:33 PM 40.3808 -81.1119 235° Southwest 244 281 17,300 -650 Descending Cleveland Center
Tue 10:16:33 PM 40.3386 -81.1850 233° Southwest 249 287 16,700 -600 Descending Cleveland Center
Tue 10:17:33 PM 40.2986 -81.2636 236° Southwest 256 295 16,100 -172 Descending Cleveland Center
Tue 10:20:02 PM 40.1989 -81.4533 236° Southwest 242 278 16,100  Level Indianapolis Center
Tue 10:21:03 PM 40.1592 -81.5256 234° Southwest 243 280 16,100  Level Indianapolis Center
Tue 10:22:04 PM 40.1258 -81.6008 240° Southwest 237 273 16,100  Level Indianapolis Center
Tue 10:23:05 PM 40.0956 -81.6764 242° Southwest 233 268 16,100  Level Indianapolis Center
Tue 10:24:07 PM 40.0644 -81.7536 242° Southwest 238 274 16,100  Level Indianapolis Center
Tue 10:25:08 PM 40.0317 -81.8319 241° Southwest 231 266 16,100  Level Indianapolis Center
Tue 10:26:09 PM 40.0019 -81.9092 243° Southwest 236 272 16,100  Level Indianapolis Center
Tue 10:27:10 PM 39.9731 -81.9869 244° Southwest 235 270 16,100  Level Indianapolis Center
Tue 10:28:11 PM 39.9425 -82.0622 242° Southwest 232 267 16,100 -49 Level Indianapolis Center
Tue 10:29:12 PM 39.9128 -82.1406 244° Southwest 237 273 16,000 -49 Descending Indianapolis Center
Tue 10:30:13 PM 39.8833 -82.2172 243° Southwest 235 270 16,000  Level Indianapolis Center
Tue 10:31:14 PM 39.8539 -82.2944 244° Southwest 238 274 16,000  Level Indianapolis Center
Tue 10:32:16 PM 39.8250 -82.3717 244° Southwest 235 270 16,000  Level Indianapolis Center
Tue 10:33:17 PM 39.7956 -82.4478 243° Southwest 234 269 16,000  Level Indianapolis Center
Tue 10:34:18 PM 39.7675 -82.5261 245° Southwest 236 272 16,000  Level Indianapolis Center
Tue 10:35:19 PM 39.7389 -82.6033 244° Southwest 236 272 16,000  Level Indianapolis Center
Tue 10:36:20 PM 39.7064 -82.6939 245° Southwest 235 270 16,000  Level Indianapolis Center
Tue 10:37:21 PM 39.6800 -82.7722 246° West 234 269 16,000  Level Indianapolis Center
Tue 10:38:22 PM 39.6539 -82.8533 247° West 240 276 16,000  Level Indianapolis Center
Tue 10:39:24 PM 39.6261 -82.9325 246° West 239 275 16,000  Level Indianapolis Center
Tue 10:40:25 PM 39.6008 -83.0142 248° West 240 276 16,000  Level Indianapolis Center
Tue 10:41:26 PM 39.5733 -83.0944 246° West 240 276 16,000  Level Indianapolis Center
Tue 10:42:27 PM 39.5453 -83.1742 245° Southwest 241 277 16,000  Level Indianapolis Center
Tue 10:43:28 PM 39.5183 -83.2553 247° West 242 278 16,000  Level Indianapolis Center
Tue 10:44:29 PM 39.4908 -83.3353 246° West 240 276 16,000  Level Indianapolis Center
Tue 10:45:30 PM 39.4658 -83.4169 248° West 240 276 16,000  Level Indianapolis Center
Tue 10:46:32 PM 39.4397 -83.4978 247° West 242 278 16,000 -195 Level Indianapolis Center
Tue 10:47:33 PM 39.4125 -83.5783 246° West 241 277 15,600 -836 Descending Indianapolis Center
Tue 10:48:34 PM 39.3836 -83.6658 247° West 259 298 14,300 -1,279 Descending Indianapolis Center
Tue 10:49:35 PM 39.3564 -83.7536 248° West 261 300 13,000 -1,377 Descending Indianapolis Center
Tue 10:50:36 PM 39.3319 -83.8428 251° West 261 300 11,500 -976 Descending Indianapolis Center
Tue 10:51:38 PM 39.3083 -83.9314 251° West 260 299 11,000 -195 Descending Indianapolis Center
Tue 10:52:39 PM 39.2886 -84.0111 252° West 236 272 11,100 98 Climbing Indianapolis Center
Tue 10:53:40 PM 39.2617 -84.0894 246° West 236 272 11,200 -443 Climbing Indianapolis Center
Tue 10:54:41 PM 39.2458 -84.1697 256° West 230 265 10,200 -1,230 Descending Indianapolis Center
Tue 10:55:42 PM 39.2392 -84.2486 264° West 221 254 8,700 -1,426 Descending Indianapolis Center
Tue 10:56:43 PM 39.2419 -84.3250 273° West 212 244 7,300 -1,366 Descending Indianapolis Center
Tue 10:57:45 PM 39.2450 -84.3986 273° West 207 238 5,900 -1,073 Descending Indianapolis Center
Tue 10:58:46 PM 39.2483 -84.4686 274° West 198 228 5,100 -738 Descending Indianapolis Center
Tue 10:59:47 PM 39.2219 -84.5225 238° Southwest 184 212 4,400 -836 Descending Indianapolis Center
Tue 11:00:48 PM 39.1972 -84.5808 241° Southwest 182 209 3,400 -765 Descending Indianapolis Center
Tue 11:02:16 PM 39.1500 -84.6500 229° Southwest 140 161 2,500 -608 Descending Cincinnati TRACON
Tue 11:03:16 PM 39.1167 -84.6667 201° Southwest 117 135 1,900 -550 Descending Cincinnati TRACON
Tue 11:04:16 PM 39.0833 -84.6667 180° South 108 124 1,400 -500 Descending Cincinnati TRACON
Tue 11:06:00 PM 39.0488 -84.6678 210° Southwest  Level Estimated

Login

Don't have an account? Register now (free) for customized features, flight alerts, and more!